Time;durP1;ratioP1;P1;durP2;ratioP2;P2;SDS_P1;SDS_P2;PMS_P1;PMS_P2;Temp;Humidity;BMP_temperature;BMP_pressure;BME280_temperature;BME280_humidity;BME280_pressure;Samples;Min_cycle;Max_cycle;Signal;HPM_P1;HPM_P2
2022/11/13 00:00:43;;;;;;;7.25;4.53;;;;;;;4.26;100.00;99690.72;15279232;19;20688;-55
2022/11/13 00:06:28;;;;;;;6.30;5.03;;;;;;;4.15;100.00;99680.66;15281360;19;20074;-54
2022/11/13 00:12:14;;;;;;;6.95;5.53;;;;;;;4.15;100.00;99682.50;15270905;19;20364;-55
2022/11/13 00:17:58;;;;;;;6.15;5.30;;;;;;;4.16;100.00;99689.53;15279988;19;20010;-54
2022/11/13 00:23:42;;;;;;;5.95;5.40;;;;;;;4.15;100.00;99694.00;15275792;19;20622;-55
2022/11/13 00:29:29;;;;;;;5.78;4.50;;;;;;;4.15;100.00;99695.81;15276894;19;20006;-52
2022/11/13 00:35:11;;;;;;;6.15;4.75;;;;;;;4.12;100.00;99680.00;15280969;19;20467;-51
2022/11/13 00:40:55;;;;;;;5.13;4.63;;;;;;;4.08;100.00;99673.09;15272589;19;20388;-53
2022/11/13 00:46:40;;;;;;;6.90;4.30;;;;;;;4.07;100.00;99671.38;15278763;19;20010;-54
2022/11/13 00:52:24;;;;;;;4.50;4.10;;;;;;;3.99;100.00;99654.03;15277362;19;21027;-54
2022/11/13 00:58:06;;;;;;;6.03;4.57;;;;;;;3.95;100.00;99652.47;15278138;19;20006;-54
2022/11/13 01:03:53;;;;;;;5.30;4.80;;;;;;;3.89;100.00;99650.19;15271933;19;20018;-54
2022/11/13 01:09:35;;;;;;;6.32;4.93;;;;;;;3.80;100.00;99645.38;15274605;19;20014;-55
2022/11/13 01:15:25;;;;;;;6.43;4.82;;;;;;;3.69;100.00;99644.19;15272124;19;20011;-52
2022/11/13 01:21:13;;;;;;;6.43;5.53;;;;;;;3.67;100.00;99630.09;15275823;19;20693;-56
2022/11/13 01:26:58;;;;;;;5.22;4.50;;;;;;;3.62;100.00;99633.97;15276977;19;20263;-51
2022/11/13 01:32:41;;;;;;;5.45;4.70;;;;;;;3.62;100.00;99637.47;15274583;19;20014;-51
2022/11/13 01:38:28;;;;;;;7.70;5.10;;;;;;;3.60;100.00;99630.53;15276588;19;20022;-52
2022/11/13 01:44:15;;;;;;;6.70;4.82;;;;;;;3.55;100.00;99620.97;15272475;19;20010;-51
2022/11/13 01:50:03;;;;;;;53.13;5.35;;;;;;;3.42;100.00;99611.09;15266799;19;20785;-53
2022/11/13 01:55:50;;;;;;;308.92;9.18;;;;;;;3.24;100.00;99613.84;15275726;19;20074;-55
2022/11/13 02:01:34;;;;;;;54.05;4.20;;;;;;;3.00;100.00;99598.25;15272682;19;20022;-55
2022/11/13 02:07:20;;;;;;;5.55;4.10;;;;;;;2.83;100.00;99590.34;15272175;19;20006;-53
2022/11/13 02:13:07;;;;;;;5.10;4.60;;;;;;;2.81;100.00;99592.22;15270323;19;20352;-52
2022/11/13 02:18:50;;;;;;;4.43;3.40;;;;;;;2.71;100.00;99579.44;15266386;19;20610;-54
2022/11/13 02:24:39;;;;;;;210.55;5.70;;;;;;;2.35;100.00;99564.50;15273777;19;20018;-49
2022/11/13 02:30:30;;;;;;;376.70;6.50;;;;;;;2.13;100.00;99556.75;15269322;19;20038;-50
2022/11/13 02:36:17;;;;;;;78.97;3.67;;;;;;;1.94;100.00;99556.88;15271557;19;20468;-52
2022/11/13 02:42:02;;;;;;;207.57;5.40;;;;;;;1.74;100.00;99556.06;15268327;19;20063;-51
2022/11/13 02:47:46;;;;;;;574.70;11.23;;;;;;;1.56;100.00;99551.69;15269557;19;20014;-53
2022/11/13 02:53:28;;;;;;;145.38;5.50;;;;;;;1.44;100.00;99558.44;15265047;19;20018;-49
2022/11/13 02:59:15;;;;;;;115.43;4.55;;;;;;;1.35;100.00;99549.16;15272834;19;20075;-49
2022/11/13 03:05:04;;;;;;;338.42;7.75;;;;;;;1.28;100.00;99551.25;15268636;19;20031;-52
2022/11/13 03:10:48;;;;;;;373.45;7.95;;;;;;;1.20;100.00;99551.63;15268616;19;20018;-50
2022/11/13 03:16:35;;;;;;;158.15;4.60;;;;;;;1.10;100.00;99558.31;15271952;19;20082;-51
2022/11/13 03:22:17;;;;;;;72.53;3.70;;;;;;;1.05;100.00;99555.00;15266381;19;20022;-53
2022/11/13 03:28:01;;;;;;;171.18;4.43;;;;;;;0.99;100.00;99564.09;15285806;19;20011;-51
2022/11/13 03:33:46;;;;;;;106.20;3.75;;;;;;;0.92;100.00;99563.53;14768410;19;10000274;-52
2022/11/13 03:39:30;;;;;;;77.97;3.75;;;;;;;0.89;100.00;99557.50;15284902;19;20481;-50
2022/11/13 03:45:13;;;;;;;50.50;3.40;;;;;;;0.81;100.00;99560.53;15285320;19;20106;-50
2022/11/13 03:51:03;;;;;;;72.35;3.75;;;;;;;0.73;100.00;99552.06;15278784;19;20660;-52
2022/11/13 03:56:47;;;;;;;470.48;9.90;;;;;;;0.74;100.00;99532.56;15280035;19;20046;-50
2022/11/13 04:02:36;;;;;;;209.85;6.68;;;;;;;0.75;100.00;99550.22;15260412;19;20014;-52
2022/11/13 04:08:21;;;;;;;23.67;4.05;;;;;;;0.77;100.00;99546.53;15278234;19;20010;-56
2022/11/13 04:14:05;;;;;;;36.45;3.97;;;;;;;0.76;100.00;99546.63;15277708;19;20086;-54
2022/11/13 04:19:47;;;;;;;10.95;2.97;;;;;;;0.71;100.00;99549.47;15280375;19;20018;-58
2022/11/13 04:25:34;;;;;;;128.82;4.68;;;;;;;0.64;100.00;99544.53;15281667;19;20089;-56
2022/11/13 04:31:16;;;;;;;401.58;8.35;;;;;;;0.59;100.00;99540.28;15270955;19;20479;-54
2022/11/13 04:37:00;;;;;;;263.48;6.95;;;;;;;0.52;100.00;99528.25;15280213;19;20347;-54
2022/11/13 04:42:51;;;;;;;168.95;5.35;;;;;;;0.41;100.00;99519.94;15277524;19;20098;-53
2022/11/13 04:48:35;;;;;;;45.15;4.40;;;;;;;0.36;100.00;99527.22;15276011;19;20018;-59
2022/11/13 04:54:17;;;;;;;4.15;3.75;;;;;;;0.35;100.00;99536.09;15273991;19;20379;-54
2022/11/13 05:00:07;;;;;;;9.27;4.55;;;;;;;0.31;100.00;99527.44;15270635;19;20014;-55
2022/11/13 05:05:50;;;;;;;5.40;4.70;;;;;;;0.32;100.00;99533.59;15278700;19;20006;-57
2022/11/13 05:11:33;;;;;;;5.00;4.60;;;;;;;0.30;100.00;99526.56;15274253;19;20038;-53
2022/11/13 05:17:18;;;;;;;5.10;4.60;;;;;;;0.30;100.00;99521.25;15279974;19;20007;-57
2022/11/13 05:23:02;;;;;;;4.85;4.25;;;;;;;0.28;100.00;99512.53;15276045;19;20482;-53
2022/11/13 05:28:45;;;;;;;5.00;4.50;;;;;;;0.29;100.00;99510.72;15274916;19;20398;-52
2022/11/13 05:34:32;;;;;;;5.60;5.10;;;;;;;0.27;100.00;99507.28;15267656;19;20022;-52
2022/11/13 05:40:14;;;;;;;5.50;5.00;;;;;;;0.27;100.00;99489.59;15277465;19;20028;-55
2022/11/13 05:45:58;;;;;;;5.03;4.47;;;;;;;0.26;100.00;99493.19;15271872;19;20018;-57
2022/11/13 05:51:44;;;;;;;4.40;4.00;;;;;;;0.24;100.00;99484.44;15263008;19;20015;-53
2022/11/13 05:57:29;;;;;;;7.10;4.22;;;;;;;0.21;100.00;99489.03;15273868;19;20040;-58
2022/11/13 06:03:19;;;;;;;22.38;5.40;;;;;;;0.20;100.00;99489.94;15270632;19;20022;-54
2022/11/13 06:09:07;;;;;;;96.07;5.90;;;;;;;0.20;100.00;99485.50;15272234;19;20038;-52
2022/11/13 06:14:51;;;;;;;145.00;6.38;;;;;;;0.19;100.00;99482.94;15274165;19;20018;-51
2022/11/13 06:20:36;;;;;;;52.28;5.47;;;;;;;0.18;100.00;99478.56;15271407;19;20019;-50
2022/11/13 06:26:24;;;;;;;161.15;6.57;;;;;;;0.15;100.00;99474.25;15272916;19;20018;-54
2022/11/13 06:32:07;;;;;;;73.82;4.82;;;;;;;0.12;100.00;99463.78;15267450;19;20026;-54
2022/11/13 06:37:50;;;;;;;408.98;8.48;;;;;;;0.02;100.00;99450.09;15266352;19;20022;-60
2022/11/13 06:43:36;;;;;;;129.55;4.80;;;;;;;-0.02;100.00;99449.38;15269596;19;20018;-58
2022/11/13 06:49:20;;;;;;;383.00;7.07;;;;;;;-0.11;100.00;99465.69;15271221;19;20015;-58
2022/11/13 06:55:02;;;;;;;135.70;5.88;;;;;;;-0.15;100.00;99464.09;15064793;19;20018;-52
2022/11/13 07:00:49;;;;;;;147.60;6.25;;;;;;;-0.06;100.00;99458.38;15264229;19;20019;-52
2022/11/13 07:06:31;;;;;;;192.60;7.43;;;;;;;-0.02;100.00;99464.41;15189125;19;20014;-57
2022/11/13 07:12:16;;;;;;;39.05;3.60;;;;;;;-0.13;100.00;99459.59;15263461;19;20018;-58
2022/11/13 07:18:01;;;;;;;15.75;3.58;;;;;;;-0.16;100.00;99450.00;15272629;19;20014;-53
2022/11/13 07:23:46;;;;;;;10.18;3.53;;;;;;;-0.19;100.00;99446.63;15268049;19;20023;-56
2022/11/13 07:29:29;;;;;;;29.38;3.55;;;;;;;-0.26;100.00;99432.78;15271147;19;20019;-56
2022/11/13 07:35:18;;;;;;;16.90;3.17;;;;;;;-0.31;100.00;99424.19;15270517;19;20010;-55
2022/11/13 07:41:01;;;;;;;9.68;3.30;;;;;;;-0.36;100.00;99421.75;15266259;19;20955;-56
2022/11/13 07:46:44;;;;;;;78.95;5.60;;;;;;;-0.36;100.00;99423.53;15269682;19;20018;-56
2022/11/13 07:52:30;;;;;;;168.85;7.57;;;;;;;-0.38;100.00;99420.94;15265769;19;20015;-54
2022/11/13 07:58:14;;;;;;;657.15;17.83;;;;;;;-0.35;100.00;99426.09;15268709;19;20074;-57
2022/11/13 08:04:04;;;;;;;321.60;10.48;;;;;;;-0.30;100.00;99428.56;15261363;19;20018;-56
2022/11/13 08:09:49;;;;;;;218.70;8.63;;;;;;;-0.25;100.00;99438.94;15263491;19;20023;-54
2022/11/13 08:15:33;;;;;;;525.88;15.38;;;;;;;-0.19;100.00;99436.03;15276649;19;20093;-61
2022/11/13 08:21:17;;;;;;;430.70;11.73;;;;;;;-0.12;100.00;99440.13;15282486;19;20022;-54
2022/11/13 08:27:02;;;;;;;122.55;8.20;;;;;;;-0.08;100.00;99423.16;15282598;19;20006;-54
2022/11/13 08:32:44;;;;;;;7.30;6.57;;;;;;;0.07;100.00;99436.63;15278198;19;20022;-55
2022/11/13 08:38:28;;;;;;;7.15;6.47;;;;;;;0.21;100.00;99428.91;15279972;19;20102;-56
2022/11/13 08:44:13;;;;;;;6.72;6.13;;;;;;;0.39;100.00;99431.66;15277249;19;20376;-58
2022/11/13 08:49:57;;;;;;;6.80;6.20;;;;;;;0.54;100.00;99424.75;15276765;19;20026;-56
2022/11/13 08:55:39;;;;;;;6.70;6.10;;;;;;;0.78;100.00;99425.34;15280502;19;20042;-52
2022/11/13 09:01:25;;;;;;;7.00;6.40;;;;;;;1.02;100.00;99430.41;15275975;19;20010;-54
2022/11/13 09:07:08;;;;;;;7.38;6.68;;;;;;;1.39;100.00;99447.16;15278492;19;20011;-59
2022/11/13 09:12:52;;;;;;;6.05;5.32;;;;;;;1.62;100.00;99456.63;15274113;19;20018;-57
2022/11/13 09:18:37;;;;;;;5.07;4.63;;;;;;;1.79;100.00;99458.41;15272481;19;20019;-56
2022/11/13 09:24:21;;;;;;;4.35;3.95;;;;;;;2.03;100.00;99447.41;15273026;19;20070;-57
2022/11/13 09:30:05;;;;;;;4.88;4.10;;;;;;;2.28;100.00;99446.94;15270996;19;20022;-55
2022/11/13 09:35:52;;;;;;;4.30;3.70;;;;;;;2.55;100.00;99454.38;15273155;19;20056;-54
2022/11/13 09:41:39;;;;;;;4.78;4.38;;;;;;;2.93;100.00;99467.34;15274025;19;20408;-59
2022/11/13 09:47:27;;;;;;;4.50;4.10;;;;;;;2.96;100.00;99471.63;15274595;19;20022;-57
2022/11/13 09:53:15;;;;;;;4.60;4.20;;;;;;;3.10;100.00;99472.63;15269057;19;20018;-57
2022/11/13 09:59:06;;;;;;;4.40;4.00;;;;;;;3.18;100.00;99454.41;15274987;19;20010;-58
2022/11/13 10:05:05;;;;;;;4.90;4.47;;;;;;;3.35;100.00;99438.28;15271933;19;20019;-60
2022/11/13 10:10:57;;;;;;;5.00;4.50;;;;;;;3.61;100.00;99430.56;15272805;19;20014;-59
2022/11/13 10:16:44;;;;;;;4.43;3.97;;;;;;;3.79;100.00;99425.06;15275371;19;20626;-60
2022/11/13 10:22:32;;;;;;;6.05;5.30;;;;;;;3.89;100.00;99420.03;15266603;19;20636;-60
2022/11/13 10:28:24;;;;;;;4.35;3.95;;;;;;;3.90;100.00;99411.94;15271962;19;20416;-58
2022/11/13 10:34:28;;;;;;;9.30;4.50;;;;;;;3.92;100.00;99394.06;15266995;19;20010;-60
2022/11/13 10:40:12;;;;;;;4.50;4.10;;;;;;;3.92;100.00;99378.06;15270361;19;20283;-60
2022/11/13 10:46:01;;;;;;;3.92;3.63;;;;;;;4.07;100.00;99368.25;15270546;19;20014;-60
2022/11/13 10:51:44;;;;;;;4.28;3.88;;;;;;;4.16;100.00;99345.47;15267636;19;20014;-60
2022/11/13 10:57:33;;;;;;;3.97;3.53;;;;;;;4.28;100.00;99330.47;15264590;19;20030;-57
2022/11/13 11:03:22;;;;;;;65.95;5.15;;;;;;;4.24;100.00;99316.50;15266927;19;20015;-59
2022/11/13 11:09:18;;;;;;;5.00;4.60;;;;;;;4.47;100.00;99292.78;15269376;19;20015;-62
2022/11/13 11:15:18;;;;;;;14.20;3.75;;;;;;;4.78;100.00;99288.06;15270608;19;20010;-56
2022/11/13 11:21:08;;;;;;;7.30;4.00;;;;;;;4.98;100.00;99264.53;15267712;19;20014;-55
2022/11/13 11:27:00;;;;;;;17.50;4.13;;;;;;;5.37;100.00;99270.72;15265528;19;20380;-62
2022/11/13 11:32:46;;;;;;;5.95;4.10;;;;;;;5.63;100.00;99242.19;15266328;19;20446;-61
2022/11/13 11:40:34;;;;;;;3.60;3.30;;;;;;;5.84;100.00;99234.41;15339320;19;20113;-58
2022/11/13 11:46:24;;;;;;;12.07;4.00;;;;;;;5.78;100.00;99194.75;15344355;19;20007;-59
2022/11/13 11:52:21;;;;;;;3.83;3.50;;;;;;;5.44;100.00;99193.66;15340430;19;20014;-58
2022/11/13 11:58:20;;;;;;;5.70;4.38;;;;;;;5.36;100.00;99196.84;15335622;19;20026;-59
2022/11/13 12:04:19;;;;;;;7.05;4.70;;;;;;;5.25;100.00;99206.50;15335184;19;20018;-59
2022/11/13 12:10:10;;;;;;;5.90;5.40;;;;;;;5.22;100.00;99200.53;15342082;19;20633;-57
2022/11/13 12:16:04;;;;;;;7.60;6.82;;;;;;;5.25;100.00;99205.66;15341742;19;20033;-58
2022/11/13 12:21:55;;;;;;;7.43;6.63;;;;;;;5.29;100.00;99214.31;15343370;19;20010;-57
2022/11/13 12:27:46;;;;;;;32.10;7.78;;;;;;;5.13;100.00;99193.16;15344355;19;20014;-60
2022/11/13 12:33:43;;;;;;;8.20;6.97;;;;;;;5.06;100.00;99200.75;15336644;19;20026;-63
2022/11/13 12:39:51;;;;;;;7.10;6.50;;;;;;;5.20;100.00;99197.97;15339588;19;20010;-59
2022/11/13 12:45:48;;;;;;;38.00;7.30;;;;;;;5.11;100.00;99184.38;15342249;19;20081;-61
2022/11/13 12:51:34;;;;;;;7.85;6.80;;;;;;;5.22;100.00;99179.16;15282238;19;20018;-58
2022/11/13 12:57:23;;;;;;;9.50;6.78;;;;;;;5.17;100.00;99163.44;15282405;19;20018;-61
2022/11/13 13:03:24;;;;;;;32.50;7.65;;;;;;;5.27;100.00;99170.81;15282306;19;20420;-62
2022/11/13 13:09:37;;;;;;;9.07;7.82;;;;;;;5.38;100.00;99163.75;15291577;19;20086;-61
2022/11/13 13:15:37;;;;;;;11.18;8.20;;;;;;;5.48;100.00;99158.56;15304907;19;20022;-62
2022/11/13 13:21:23;;;;;;;9.82;8.13;;;;;;;5.42;100.00;99145.66;15277837;19;20010;-61
2022/11/13 13:27:34;;;;;;;11.45;8.43;;;;;;;5.42;100.00;99134.97;15275694;19;20010;-58
2022/11/13 13:33:24;;;;;;;17.05;9.85;;;;;;;5.24;100.00;99129.97;15277169;19;20011;-58
2022/11/13 13:39:16;;;;;;;16.75;9.82;;;;;;;5.07;100.00;99120.50;15269858;19;20371;-60
2022/11/13 13:45:16;;;;;;;10.97;9.33;;;;;;;4.93;100.00;99100.13;15278397;19;20019;-59
2022/11/13 13:51:02;;;;;;;10.85;9.85;;;;;;;4.80;100.00;99101.09;15273546;19;20014;-60
2022/11/13 13:56:46;;;;;;;10.40;9.38;;;;;;;4.75;100.00;99109.44;15275516;19;20010;-59
2022/11/13 14:02:33;;;;;;;29.83;10.13;;;;;;;4.58;100.00;99095.44;15269650;19;20022;-58
2022/11/13 14:08:20;;;;;;;31.90;12.35;;;;;;;4.26;100.00;99073.63;15272449;19;20018;-59
2022/11/13 14:14:14;;;;;;;38.72;13.40;;;;;;;3.99;100.00;99077.25;15272400;19;20014;-59
2022/11/13 14:20:00;;;;;;;30.30;16.35;;;;;;;3.60;100.00;99071.78;15272137;19;20026;-57
2022/11/13 14:25:44;;;;;;;129.40;19.55;;;;;;;3.40;100.00;99078.44;15270315;19;20446;-58
2022/11/13 14:31:29;;;;;;;34.80;18.55;;;;;;;3.33;100.00;99077.09;15273207;19;20033;-58
2022/11/13 14:37:29;;;;;;;30.75;18.58;;;;;;;3.13;100.00;99068.59;15273484;19;20014;-58
2022/11/13 14:43:20;;;;;;;64.07;19.17;;;;;;;3.02;100.00;99073.75;15265128;19;20074;-60
2022/11/13 14:49:05;;;;;;;;;;;;;;;2.89;100.00;99068.31;15273599;19;20518;-58
2022/11/13 14:54:50;;;;;;;39.33;18.67;;;;;;;2.88;100.00;99063.97;15274361;19;19934;-60
2022/11/13 15:00:51;;;;;;;54.38;19.20;;;;;;;2.76;100.00;99061.09;15266185;19;20014;-59
2022/11/13 15:06:39;;;;;;;24.50;20.77;;;;;;;2.72;100.00;99074.69;15268878;19;20597;-62
2022/11/13 15:12:25;;;;;;;23.17;20.65;;;;;;;2.72;100.00;99085.34;15265486;19;20007;-61
2022/11/13 15:18:11;;;;;;;25.27;21.17;;;;;;;2.71;100.00;99087.16;15265300;19;20566;-63
2022/11/13 15:23:55;;;;;;;26.38;21.63;;;;;;;2.70;100.00;99093.44;15265405;19;20006;-61
2022/11/13 15:29:40;;;;;;;30.40;21.30;;;;;;;2.69;100.00;99090.88;15269550;19;20006;-62
2022/11/13 15:35:26;;;;;;;25.15;22.45;;;;;;;2.69;100.00;99089.06;15269417;19;20042;-62
2022/11/13 15:41:13;;;;;;;26.63;22.17;;;;;;;2.70;100.00;99093.44;15267405;19;20728;-63
2022/11/13 15:47:00;;;;;;;30.95;24.40;;;;;;;2.69;100.00;99091.72;15265709;19;20089;-61
2022/11/13 15:52:47;;;;;;;35.58;25.98;;;;;;;2.69;100.00;99086.41;15267773;19;20063;-62
2022/11/13 15:58:31;;;;;;;32.47;24.33;;;;;;;2.73;100.00;99076.41;15268325;19;20371;-62
2022/11/13 16:04:16;;;;;;;46.33;25.50;;;;;;;2.76;100.00;99079.72;15264379;19;20018;-60
2022/11/13 16:10:17;;;;;;;35.58;25.25;;;;;;;2.77;100.00;99078.78;15269906;19;20022;-63
2022/11/13 16:16:01;;;;;;;41.85;23.45;;;;;;;2.76;100.00;99082.41;15270255;19;20020;-62
2022/11/13 16:21:48;;;;;;;56.95;25.50;;;;;;;2.80;100.00;99084.88;15260565;19;20014;-65
2022/11/13 16:27:40;;;;;;;39.38;24.17;;;;;;;2.81;100.00;99091.91;15285196;19;20010;-62
2022/11/13 16:33:22;;;;;;;115.30;27.50;;;;;;;2.77;100.00;99076.13;15279362;19;20011;-62
2022/11/13 16:39:10;;;;;;;59.05;28.13;;;;;;;2.76;100.00;99078.88;15278371;19;20010;-62
2022/11/13 16:44:53;;;;;;;122.50;27.05;;;;;;;2.77;100.00;99081.44;15281727;19;20011;-62
2022/11/13 16:50:39;;;;;;;450.48;31.30;;;;;;;2.77;100.00;99077.94;15275154;19;20014;-62
2022/11/13 16:56:29;;;;;;;48.80;27.15;;;;;;;2.80;100.00;99084.88;15278913;19;20245;-63
2022/11/13 17:02:21;;;;;;;90.37;29.23;;;;;;;2.84;100.00;99081.91;15275873;19;20078;-62
2022/11/13 17:08:04;;;;;;;85.97;29.43;;;;;;;2.87;100.00;99078.22;15279743;19;20022;-63
2022/11/13 17:13:51;;;;;;;56.63;29.02;;;;;;;2.91;100.00;99069.09;15274421;19;20015;-63
2022/11/13 17:19:39;;;;;;;45.53;29.33;;;;;;;2.95;100.00;99059.97;15275378;19;20018;-63
2022/11/13 17:25:29;;;;;;;114.93;29.20;;;;;;;3.00;100.00;99070.31;15267712;19;20019;-63
2022/11/13 17:31:14;;;;;;;59.42;28.13;;;;;;;3.02;100.00;99069.25;15276481;19;20358;-62
2022/11/13 17:36:59;;;;;;;111.20;29.73;;;;;;;3.06;100.00;99061.94;15276607;19;20014;-63
2022/11/13 17:42:42;;;;;;;272.67;30.83;;;;;;;3.07;100.00;99061.84;15274593;19;20015;-63
2022/11/13 17:48:29;;;;;;;115.22;29.33;;;;;;;3.11;100.00;99080.31;15277431;19;20007;-63
2022/11/13 17:54:11;;;;;;;156.13;28.52;;;;;;;3.12;100.00;99055.38;15273461;19;20010;-63
2022/11/13 17:59:55;;;;;;;182.50;27.90;;;;;;;3.12;100.00;99048.25;15261662;19;20462;-52
2022/11/13 18:05:40;;;;;;;308.95;27.85;;;;;;;3.13;100.00;99041.97;15275897;19;20014;-55
2022/11/13 18:11:26;;;;;;;312.92;27.85;;;;;;;3.13;100.00;99046.41;15247113;19;20130;-57
2022/11/13 18:17:09;;;;;;;188.95;26.30;;;;;;;3.13;100.00;99033.09;15274545;19;20410;-54
2022/11/13 18:22:55;;;;;;;349.17;28.38;;;;;;;3.13;100.00;99033.09;15274197;19;20498;-55
2022/11/13 18:28:38;;;;;;;280.83;27.75;;;;;;;3.06;100.00;99033.50;15269653;19;20015;-57
2022/11/13 18:34:25;;;;;;;379.67;27.73;;;;;;;3.02;100.00;99033.81;15275124;19;20007;-56
2022/11/13 18:40:12;;;;;;;246.10;27.40;;;;;;;3.02;100.00;99025.81;15268216;19;20086;-54
2022/11/13 18:46:05;;;;;;;134.25;26.98;;;;;;;3.02;100.00;99033.81;15271483;19;20110;-55
2022/11/13 18:51:47;;;;;;;169.98;27.02;;;;;;;2.98;100.00;99026.97;15272080;19;20018;-54
2022/11/13 18:57:34;;;;;;;132.23;27.98;;;;;;;2.97;100.00;99023.47;15278765;19;20752;-54
2022/11/13 19:03:16;;;;;;;146.70;28.40;;;;;;;2.97;100.00;99020.81;15274437;19;20038;-53
2022/11/13 19:09:03;;;;;;;216.48;27.48;;;;;;;2.97;100.00;99015.47;15276927;19;20085;-54
2022/11/13 19:14:49;;;;;;;225.45;27.75;;;;;;;2.97;100.00;99012.81;15275327;19;20015;-52
2022/11/13 19:20:26;;;;;;;261.08;25.23;;;;;;;2.86;100.00;99004.66;15276538;19;20082;-54
2022/11/13 19:26:10;;;;;;;243.60;24.55;;;;;;;2.86;100.00;98999.34;15275313;19;20026;-53
2022/11/13 19:31:56;;;;;;;285.27;22.77;;;;;;;2.80;100.00;98994.41;15275313;19;20010;-53
2022/11/13 19:37:40;;;;;;;228.25;22.10;;;;;;;2.76;100.00;98981.28;15277512;19;20045;-52
2022/11/13 19:43:22;;;;;;;276.80;23.38;;;;;;;2.69;100.00;98985.28;15276748;19;20486;-51
2022/11/13 19:49:09;;;;;;;219.63;22.13;;;;;;;2.70;100.00;98975.53;15274799;19;20024;-52
2022/11/13 19:54:53;;;;;;;194.10;19.88;;;;;;;2.60;100.00;98972.59;15275466;19;20038;-52
2022/11/13 20:00:44;;;;;;;220.98;19.15;;;;;;;2.47;100.00;98970.69;15280632;19;20475;-52
2022/11/13 20:06:37;;;;;;;306.45;20.80;;;;;;;2.44;100.00;98965.56;15283971;19;20014;-52
2022/11/13 20:12:20;;;;;;;266.13;21.10;;;;;;;2.32;100.00;98955.69;15284169;19;20359;-53
2022/11/13 20:18:04;;;;;;;108.43;21.15;;;;;;;2.28;100.00;98956.84;15287679;19;20018;-54
2022/11/13 20:23:50;;;;;;;237.80;20.10;;;;;;;2.25;100.00;98954.38;15289679;19;20006;-52
2022/11/13 20:29:34;;;;;;;132.95;16.92;;;;;;;2.20;100.00;98946.69;15286975;19;20014;-55
2022/11/13 20:35:17;;;;;;;108.03;16.10;;;;;;;2.13;100.00;98942.69;15289904;19;20006;-55
2022/11/13 20:41:03;;;;;;;109.32;15.18;;;;;;;2.09;100.00;98943.84;15281605;19;20014;-53
2022/11/13 20:46:46;;;;;;;202.00;16.05;;;;;;;1.93;100.00;98933.31;15289122;19;20010;-53
2022/11/13 20:52:29;;;;;;;63.47;15.00;;;;;;;1.88;100.00;98940.69;15288432;19;20010;-53
2022/11/13 20:58:14;;;;;;;95.88;15.10;;;;;;;1.84;100.00;98940.03;15285719;19;20018;-54
2022/11/13 21:03:59;;;;;;;213.73;16.63;;;;;;;1.75;100.00;98946.75;15285717;19;20018;-53
2022/11/13 21:09:41;;;;;;;192.90;17.20;;;;;;;1.68;100.00;98943.59;15277123;19;20735;-51
2022/11/13 21:15:28;;;;;;;169.38;16.48;;;;;;;1.60;100.00;98937.03;15286401;19;20014;-53
2022/11/13 21:21:13;;;;;;;99.22;15.55;;;;;;;1.51;100.00;98931.31;15281928;19;20014;-52
2022/11/13 21:26:57;;;;;;;15.70;14.00;;;;;;;1.45;100.00;98923.75;15285786;19;20030;-54
2022/11/13 21:32:42;;;;;;;15.23;13.73;;;;;;;1.36;100.00;98903.91;15285915;19;20034;-55
2022/11/13 21:38:26;;;;;;;14.18;12.85;;;;;;;1.26;100.00;98907.16;15284708;19;20014;-57
2022/11/13 21:44:12;;;;;;;13.57;12.27;;;;;;;1.17;100.00;98898.81;15281416;19;20006;-56
2022/11/13 21:49:58;;;;;;;14.85;13.35;;;;;;;1.14;100.00;98884.88;15279551;19;20417;-56
2022/11/13 21:55:50;;;;;;;14.52;13.02;;;;;;;1.13;100.00;98885.81;15284028;19;20093;-52
2022/11/13 22:01:35;;;;;;;13.75;12.45;;;;;;;1.08;100.00;98880.78;15279485;19;20038;-54
2022/11/13 22:07:20;;;;;;;12.68;11.50;;;;;;;0.98;100.00;98882.25;15283281;19;20384;-56
2022/11/13 22:13:04;;;;;;;11.05;10.05;;;;;;;0.89;100.00;98876.53;15277443;19;20736;-56
2022/11/13 22:18:49;;;;;;;9.93;9.02;;;;;;;0.73;100.00;98868.59;15282587;19;20014;-52
2022/11/13 22:24:35;;;;;;;10.90;9.90;;;;;;;0.67;100.00;98861.00;15280922;19;20053;-53
2022/11/13 22:30:20;;;;;;;10.05;9.15;;;;;;;0.60;100.00;98872.88;15280244;19;20630;-54
2022/11/13 22:36:09;;;;;;;10.85;9.85;;;;;;;0.50;100.00;98863.75;15282181;19;20014;-55
2022/11/13 22:41:54;;;;;;;11.60;10.35;;;;;;;0.40;100.00;98858.97;15278345;19;20018;-55
2022/11/13 22:47:38;;;;;;;10.70;9.80;;;;;;;0.32;100.00;98841.78;15274162;19;20023;-56
2022/11/13 22:53:20;;;;;;;10.45;9.45;;;;;;;0.20;100.00;98832.75;15281091;19;20610;-54
2022/11/13 22:59:14;;;;;;;10.75;9.70;;;;;;;0.12;100.00;98823.41;15278219;19;20018;-53
2022/11/13 23:04:57;;;;;;;17.63;14.55;;;;;;;0.14;100.00;98829.47;15279722;19;20373;-52
2022/11/13 23:10:40;;;;;;;21.45;18.92;;;;;;;0.23;100.00;98824.63;15276165;19;20014;-52
2022/11/13 23:16:27;;;;;;;15.52;13.93;;;;;;;0.19;100.00;98831.03;15277604;19;20019;-51
2022/11/13 23:22:11;;;;;;;20.98;17.75;;;;;;;0.25;100.00;98806.81;15269781;19;20030;-52
2022/11/13 23:27:53;;;;;;;26.23;20.60;;;;;;;0.36;100.00;98803.56;15276725;19;20006;-53
2022/11/13 23:33:40;;;;;;;18.42;16.13;;;;;;;0.34;100.00;98798.38;15275990;19;20007;-52
2022/11/13 23:39:24;;;;;;;21.38;17.02;;;;;;;0.36;100.00;98800.94;15276094;19;20475;-57
2022/11/13 23:45:07;;;;;;;20.38;16.58;;;;;;;0.27;100.00;98787.25;15279125;19;20014;-53
2022/11/13 23:50:52;;;;;;;30.60;21.52;;;;;;;0.35;100.00;98789.50;15264528;19;20010;-53
2022/11/13 23:56:36;;;;;;;23.38;18.02;;;;;;;0.33;100.00;98777.25;15276228;19;20441;-52
